createdAt,value
2023-05-13T00:01:51.217Z,96033.31
2023-05-13T00:04:17.604Z,96037.25
2023-05-13T00:06:43.973Z,96045.22
2023-05-13T00:09:10.349Z,96044.44
2023-05-13T00:11:36.704Z,96047.84
2023-05-13T00:14:03.086Z,96050.22
2023-05-13T00:16:29.488Z,96049.69
2023-05-13T00:18:56.027Z,96046.78
2023-05-13T00:21:22.591Z,96052.84
2023-05-13T00:23:48.997Z,96051.25
2023-05-13T00:26:15.389Z,96051.50
2023-05-13T00:28:41.755Z,96053.34
2023-05-13T00:31:08.220Z,96049.38
2023-05-13T00:33:34.587Z,96054.88
2023-05-13T00:36:00.962Z,96054.06
2023-05-13T00:38:27.363Z,96040.06
2023-05-13T00:40:53.722Z,96045.84
2023-05-13T00:43:20.116Z,96050.59
2023-05-13T00:45:46.523Z,96040.50
2023-05-13T00:48:12.933Z,96048.34
2023-05-13T00:50:39.284Z,96045.72
2023-05-13T00:53:05.669Z,96049.91
2023-05-13T00:55:32.044Z,96057.78
2023-05-13T00:57:58.385Z,96053.63
2023-05-13T01:00:24.780Z,96054.66
2023-05-13T01:02:51.271Z,96058.84
2023-05-13T01:05:17.711Z,96055.97
2023-05-13T01:07:44.071Z,96067.84
2023-05-13T01:10:10.465Z,96065.25
2023-05-13T01:12:36.843Z,96066.31
2023-05-13T01:15:03.199Z,96069.50
2023-05-13T01:17:29.614Z,96070.53
2023-05-13T01:19:56.005Z,96080.03
2023-05-13T01:22:22.366Z,96073.16
2023-05-13T01:24:48.741Z,96075.81
2023-05-13T01:27:15.141Z,96078.19
2023-05-13T01:29:41.531Z,96077.91
2023-05-13T01:32:07.908Z,96075.78
2023-05-13T01:34:34.293Z,96076.25
2023-05-13T01:37:00.686Z,96079.91
2023-05-13T01:39:27.062Z,96076.47
2023-05-13T01:41:53.446Z,96074.66
2023-05-13T01:44:19.840Z,96079.91
2023-05-13T01:46:46.250Z,96082.03
2023-05-13T01:49:12.643Z,96080.97
2023-05-13T01:51:39.018Z,96083.09
2023-05-13T01:54:05.372Z,96080.13
2023-05-13T01:56:31.721Z,96080.94
2023-05-13T01:58:58.118Z,96087.78
2023-05-13T02:01:24.505Z,96089.66
2023-05-13T02:03:50.956Z,96100.41
2023-05-13T02:06:17.356Z,96099.28
2023-05-13T02:08:43.734Z,96094.53
2023-05-13T02:11:10.100Z,96099.69
2023-05-13T02:13:36.445Z,96097.63
2023-05-13T02:16:03.960Z,96094.44
2023-05-13T02:18:30.327Z,96092.81
2023-05-13T02:20:56.741Z,96094.94
2023-05-13T02:23:23.080Z,96096.50
2023-05-13T02:25:49.423Z,96092.81
2023-05-13T02:28:15.806Z,96097.56
2023-05-13T02:30:42.155Z,96096.47
2023-05-13T02:33:08.535Z,96105.97
2023-05-13T02:35:34.907Z,96100.19
2023-05-13T02:38:01.317Z,96097.25
2023-05-13T02:40:27.725Z,96096.47
2023-05-13T02:42:54.114Z,96090.63
2023-05-13T02:45:20.473Z,96092.50
2023-05-13T02:47:46.854Z,96106.13
2023-05-13T02:50:13.220Z,96105.19
2023-05-13T02:52:39.563Z,96105.63
2023-05-13T02:55:06.030Z,96106.66
2023-05-13T02:57:32.451Z,96099.38
2023-05-13T02:59:58.846Z,96108.91
2023-05-13T03:02:25.262Z,96107.41
2023-05-13T03:04:51.649Z,96105.34
2023-05-13T03:07:17.986Z,96106.41
2023-05-13T03:09:44.375Z,96101.44
2023-05-13T03:12:10.769Z,96115.63
2023-05-13T03:14:37.165Z,96118.00
2023-05-13T03:17:03.518Z,96114.34
2023-05-13T03:19:29.860Z,96107.78
2023-05-13T03:21:56.205Z,96118.66
2023-05-13T03:24:22.604Z,96121.84
2023-05-13T03:26:49.003Z,96123.97
2023-05-13T03:29:15.409Z,96125.09
2023-05-13T03:31:41.841Z,96136.72
2023-05-13T03:34:08.228Z,96129.91
2023-05-13T03:36:34.608Z,96137.78
2023-05-13T03:39:01.010Z,96129.13
2023-05-13T03:41:27.397Z,96134.00
2023-05-13T03:43:53.746Z,96138.25
2023-05-13T03:46:20.115Z,96142.44
2023-05-13T03:48:46.542Z,96140.84
2023-05-13T03:51:12.918Z,96139.78
2023-05-13T03:53:39.289Z,96151.91
2023-05-13T03:56:05.655Z,96145.88
2023-05-13T03:58:32.002Z,96150.38
2023-05-13T04:00:58.380Z,96151.41
2023-05-13T04:03:24.807Z,96154.94
2023-05-13T04:05:51.265Z,96143.81
2023-05-13T04:08:17.642Z,96154.94
2023-05-13T04:10:44.018Z,96153.81
2023-05-13T04:13:10.406Z,96155.19
2023-05-13T04:15:36.764Z,96164.19
2023-05-13T04:18:03.159Z,96156.00
2023-05-13T04:20:29.514Z,96157.72
2023-05-13T04:22:55.909Z,96165.84
2023-05-13T04:25:22.295Z,96160.41
2023-05-13T04:27:48.689Z,96164.22
2023-05-13T04:30:15.043Z,96168.94
2023-05-13T04:32:41.433Z,96173.25
2023-05-13T04:35:07.826Z,96175.59
2023-05-13T04:37:34.186Z,96173.09
2023-05-13T04:40:00.564Z,96179.50
2023-05-13T04:42:26.953Z,96182.09
2023-05-13T04:44:53.319Z,96189.53
2023-05-13T04:47:19.718Z,96184.19
2023-05-13T04:49:46.167Z,96188.00
2023-05-13T04:52:13.133Z,96189.00
2023-05-13T04:54:39.516Z,96194.25
2023-05-13T04:57:05.897Z,96192.47
2023-05-13T04:59:32.254Z,96200.59
2023-05-13T05:01:58.703Z,96197.53
2023-05-13T05:04:25.125Z,96201.19
2023-05-13T05:06:51.591Z,96205.38
2023-05-13T05:09:17.980Z,96200.19
2023-05-13T05:11:44.342Z,96201.78
2023-05-13T05:14:10.736Z,96208.94
2023-05-13T05:16:37.148Z,96209.50
2023-05-13T05:19:03.579Z,96205.03
2023-05-13T05:21:29.923Z,96217.16
2023-05-13T05:23:56.304Z,96217.16
2023-05-13T05:26:22.688Z,96220.34
2023-05-13T05:28:49.041Z,96215.59
2023-05-13T05:31:15.392Z,96215.56
2023-05-13T05:33:41.739Z,96217.53
2023-05-13T05:36:08.125Z,96211.63
2023-05-13T05:38:34.480Z,96211.06
2023-05-13T05:41:00.826Z,96214.34
2023-05-13T05:43:27.208Z,96218.66
2023-05-13T05:45:53.629Z,96230.56
2023-05-13T05:48:20.093Z,96234.00
2023-05-13T05:50:46.431Z,96229.75
2023-05-13T05:53:12.811Z,96234.63
2023-05-13T05:55:39.159Z,96238.00
2023-05-13T05:58:05.571Z,96234.81
2023-05-13T06:00:32.049Z,96236.00
2023-05-13T06:02:58.484Z,96237.44
2023-05-13T06:05:24.926Z,96239.09
2023-05-13T06:07:51.305Z,96239.84
2023-05-13T06:10:17.664Z,96235.91
2023-05-13T06:12:44.052Z,96233.88
2023-05-13T06:15:10.446Z,96239.19
2023-05-13T06:17:36.826Z,96236.56
2023-05-13T06:20:03.227Z,96244.03
2023-05-13T06:22:29.608Z,96231.28
2023-05-13T06:24:55.945Z,96245.59
2023-05-13T06:27:22.335Z,96238.16
2023-05-13T06:29:48.678Z,96235.34
2023-05-13T06:32:15.025Z,96237.00
2023-05-13T06:34:41.405Z,96241.50
2023-05-13T06:37:07.748Z,96236.25
2023-05-13T06:39:34.136Z,96238.63
2023-05-13T06:42:00.528Z,96239.97
2023-05-13T06:44:26.912Z,96241.59
2023-05-13T06:46:53.349Z,96240.50
2023-05-13T06:49:19.728Z,96245.16
2023-05-13T06:51:46.310Z,96244.63
2023-05-13T06:54:12.681Z,96239.91
2023-05-13T06:56:39.078Z,96236.72
2023-05-13T06:59:05.431Z,96243.00
2023-05-13T07:01:31.998Z,96241.91
2023-05-13T07:03:58.436Z,96237.03
2023-05-13T07:06:24.840Z,96244.16
2023-05-13T07:08:51.185Z,96240.75
2023-05-13T07:11:17.565Z,96236.25
2023-05-13T07:13:43.957Z,96239.81
2023-05-13T07:16:10.367Z,96241.47
2023-05-13T07:18:36.776Z,96244.72
2023-05-13T07:21:03.131Z,96237.38
2023-05-13T07:23:29.505Z,96243.22
2023-05-13T07:25:55.902Z,96237.47
2023-05-13T07:28:22.289Z,96243.31
2023-05-13T07:30:48.696Z,96240.16
2023-05-13T07:33:15.132Z,96244.31
2023-05-13T07:35:41.483Z,96245.44
2023-05-13T07:38:07.831Z,96234.97
2023-05-13T07:40:34.165Z,96234.88
2023-05-13T07:43:00.547Z,96243.88
2023-05-13T07:45:26.894Z,96243.88
2023-05-13T07:47:53.292Z,96246.00
2023-05-13T07:50:19.639Z,96241.84
2023-05-13T07:52:45.970Z,96241.78
2023-05-13T07:55:12.356Z,96249.75
2023-05-13T07:57:38.750Z,96244.00
2023-05-13T08:00:05.144Z,96249.78
2023-05-13T08:02:31.582Z,96240.81
2023-05-13T08:04:58.116Z,96240.25
2023-05-13T08:07:24.585Z,96247.13
2023-05-13T08:09:50.922Z,96248.22
2023-05-13T08:12:17.255Z,96241.88
2023-05-13T08:14:43.633Z,96244.53
2023-05-13T08:17:09.982Z,96248.22
2023-05-13T08:19:36.386Z,96239.78
2023-05-13T08:22:02.803Z,96235.81
2023-05-13T08:24:29.155Z,96242.44
2023-05-13T08:26:55.528Z,96243.75
2023-05-13T08:29:21.896Z,96242.38
2023-05-13T08:31:48.338Z,96242.38
2023-05-13T08:34:14.724Z,96234.72
2023-05-13T08:36:41.073Z,96243.97
2023-05-13T08:39:07.467Z,96234.47
2023-05-13T08:41:33.872Z,96233.94
2023-05-13T08:44:00.272Z,96239.75
2023-05-13T08:46:26.702Z,96239.47
2023-05-13T08:48:53.075Z,96233.06
2023-05-13T08:51:19.452Z,96247.56
2023-05-13T08:53:45.801Z,96239.97
2023-05-13T08:56:12.138Z,96241.19
2023-05-13T08:58:38.517Z,96241.97
2023-05-13T09:01:04.921Z,96242.28
2023-05-13T09:03:31.274Z,96240.38
2023-05-13T09:05:57.663Z,96234.81
2023-05-13T09:08:24.019Z,96239.50
2023-05-13T09:10:50.377Z,96240.53
2023-05-13T09:13:16.730Z,96223.69
2023-05-13T09:15:43.119Z,96231.56
2023-05-13T09:18:09.661Z,96221.06
2023-05-13T09:20:36.047Z,96224.25
2023-05-13T09:23:02.445Z,96220.03
2023-05-13T09:25:28.803Z,96225.94
2023-05-13T09:27:55.221Z,96226.03
2023-05-13T09:30:21.571Z,96225.94
2023-05-13T09:32:47.970Z,96225.66
2023-05-13T09:35:14.340Z,96228.31
2023-05-13T09:37:40.727Z,96231.28
2023-05-13T09:40:07.092Z,96212.25
2023-05-13T09:42:33.430Z,96215.94
2023-05-13T09:44:59.759Z,96219.66
2023-05-13T09:47:26.161Z,96213.78
2023-05-13T09:49:52.539Z,96213.22
2023-05-13T09:52:18.888Z,96210.56
2023-05-13T09:54:45.287Z,96211.09
2023-05-13T09:57:11.670Z,96219.53
2023-05-13T09:59:38.038Z,96214.16
2023-05-13T10:02:04.368Z,96209.88
2023-05-13T10:04:30.701Z,96217.59
2023-05-13T10:06:57.048Z,96220.50
2023-05-13T10:09:23.434Z,96210.41
2023-05-13T10:11:49.822Z,96215.13
2023-05-13T10:14:16.224Z,96202.91
2023-05-13T10:16:42.651Z,96203.28
2023-05-13T10:19:09.115Z,96198.97
2023-05-13T10:21:35.604Z,96192.28
2023-05-13T10:24:02.026Z,96196.66
2023-05-13T10:26:28.391Z,96196.69
2023-05-13T10:28:54.790Z,96190.06
2023-05-13T10:31:21.206Z,96197.44
2023-05-13T10:33:47.581Z,96199.06
2023-05-13T10:36:13.952Z,96193.78
2023-05-13T10:38:40.319Z,96190.03
2023-05-13T10:41:06.656Z,96197.66
2023-05-13T10:43:33.051Z,96193.13
2023-05-13T10:45:59.434Z,96191.09
2023-05-13T10:48:25.878Z,96183.72
2023-05-13T10:50:52.454Z,96194.84
2023-05-13T10:53:18.996Z,96182.53
2023-05-13T10:55:45.393Z,96182.22
2023-05-13T10:58:11.788Z,96172.88
2023-05-13T11:00:38.184Z,96171.47
2023-05-13T11:03:04.551Z,96171.59
2023-05-13T11:05:30.978Z,96173.00
2023-05-13T11:07:57.351Z,96169.84
2023-05-13T11:10:23.744Z,96167.09
2023-05-13T11:12:50.132Z,96171.22
2023-05-13T11:15:16.487Z,96165.94
2023-05-13T11:17:42.908Z,96172.25
2023-05-13T11:20:09.285Z,96168.00
2023-05-13T11:22:35.618Z,96164.06
2023-05-13T11:25:02.049Z,96162.13
2023-05-13T11:27:28.410Z,96168.63
2023-05-13T11:29:54.756Z,96162.84
2023-05-13T11:32:21.099Z,96159.81
2023-05-13T11:34:47.499Z,96168.13
2023-05-13T11:37:13.832Z,96164.81
2023-05-13T11:39:40.222Z,96157.00
2023-05-13T11:42:06.598Z,96159.22
2023-05-13T11:44:32.976Z,96164.53
2023-05-13T11:46:59.379Z,96160.53
2023-05-13T11:49:25.736Z,96147.72
2023-05-13T11:51:52.077Z,96158.16
2023-05-13T11:54:18.432Z,96152.19
2023-05-13T11:56:44.805Z,96163.03
2023-05-13T11:59:11.165Z,96162.09
2023-05-13T12:01:37.566Z,96153.56
2023-05-13T12:04:03.960Z,96162.19
2023-05-13T12:06:30.346Z,96157.03
2023-05-13T12:08:56.760Z,96158.59
2023-05-13T12:11:23.159Z,96154.22
2023-05-13T12:13:49.501Z,96161.00
2023-05-13T12:16:15.872Z,96161.78
2023-05-13T12:18:42.371Z,96149.75
2023-05-13T12:21:08.788Z,96149.31
2023-05-13T12:23:35.155Z,96160.16
2023-05-13T12:26:01.550Z,96168.84
2023-05-13T12:28:27.913Z,96152.03
2023-05-13T12:30:54.353Z,96158.75
2023-05-13T12:33:20.773Z,96148.88
2023-05-13T12:35:47.161Z,96161.84
2023-05-13T12:38:13.506Z,96163.75
2023-05-13T12:40:39.878Z,96159.59
2023-05-13T12:43:06.221Z,96165.94
2023-05-13T12:45:32.591Z,96166.78
2023-05-13T12:47:59.021Z,96170.81
2023-05-13T12:50:25.383Z,96170.31
2023-05-13T12:52:51.765Z,96187.09
2023-05-13T12:55:18.106Z,96177.06
2023-05-13T12:57:44.485Z,96177.59
2023-05-13T13:00:10.847Z,96176.53
2023-05-13T13:02:37.278Z,96179.50
2023-05-13T13:05:03.758Z,96184.63
2023-05-13T13:07:30.149Z,96166.66
2023-05-13T13:09:56.535Z,96164.81
2023-05-13T13:12:22.879Z,96174.25
2023-05-13T13:14:49.254Z,96172.66
2023-05-13T13:17:15.639Z,96170.34
2023-05-13T13:19:41.994Z,96170.63
2023-05-13T13:22:08.377Z,96169.50
2023-05-13T13:24:34.743Z,96167.28
2023-05-13T13:27:01.094Z,96173.72
2023-05-13T13:29:27.492Z,96166.38
2023-05-13T13:31:53.900Z,96175.09
2023-05-13T13:34:20.299Z,96177.19
2023-05-13T13:36:46.646Z,96169.75
2023-05-13T13:39:12.987Z,96165.00
2023-05-13T13:41:39.338Z,96168.63
2023-05-13T13:44:05.716Z,96157.16
2023-05-13T13:46:32.138Z,96156.22
2023-05-13T13:48:58.494Z,96157.56
2023-05-13T13:51:24.883Z,96158.38
2023-05-13T13:53:51.233Z,96157.78
2023-05-13T13:56:17.622Z,96157.16
2023-05-13T13:58:43.979Z,96163.53
2023-05-13T14:01:10.357Z,96158.22
2023-05-13T14:03:36.817Z,96156.16
2023-05-13T14:06:03.296Z,96157.22
2023-05-13T14:08:29.630Z,96155.06
2023-05-13T14:10:55.966Z,96151.03
2023-05-13T14:13:22.372Z,96155.25
2023-05-13T14:15:48.801Z,96152.97
2023-05-13T14:18:15.215Z,96156.19
2023-05-13T14:20:41.605Z,96157.28
2023-05-13T14:23:07.995Z,96143.50
2023-05-13T14:25:34.392Z,96154.25
2023-05-13T14:28:00.753Z,96158.94
2023-05-13T14:30:27.129Z,96161.53
2023-05-13T14:32:53.547Z,96163.09
2023-05-13T14:35:19.949Z,96158.13
2023-05-13T14:37:46.331Z,96163.31
2023-05-13T14:40:12.726Z,96171.78
2023-05-13T14:42:39.113Z,96175.94
2023-05-13T14:45:05.459Z,96169.56
2023-05-13T14:47:31.855Z,96166.97
2023-05-13T14:49:58.276Z,96170.22
2023-05-13T14:52:24.703Z,96165.03
2023-05-13T14:54:51.106Z,96167.13
2023-05-13T14:57:17.447Z,96170.28
2023-05-13T14:59:43.810Z,96176.84
2023-05-13T15:02:10.213Z,96177.09
2023-05-13T15:04:36.705Z,96187.72
2023-05-13T15:07:03.103Z,96179.75
2023-05-13T15:09:29.461Z,96184.84
2023-05-13T15:11:55.858Z,96190.16
2023-05-13T15:14:22.213Z,96188.38
2023-05-13T15:16:48.591Z,96189.59
2023-05-13T15:19:15.064Z,96194.84
2023-05-13T15:21:41.466Z,96191.41
2023-05-13T15:24:07.858Z,96188.06
2023-05-13T15:26:34.209Z,96184.44
2023-05-13T15:29:00.591Z,96191.31
2023-05-13T15:31:26.993Z,96192.13
2023-05-13T15:33:53.620Z,96180.25
2023-05-13T15:36:20.039Z,96185.59
2023-05-13T15:38:46.471Z,96185.13
2023-05-13T15:41:12.868Z,96186.53
2023-05-13T15:43:39.268Z,96190.53
2023-05-13T15:46:05.774Z,96188.22
2023-05-13T15:48:32.199Z,96196.41
2023-05-13T15:50:58.554Z,96199.06
2023-05-13T15:53:24.899Z,96198.47
2023-05-13T15:55:51.300Z,96194.53
2023-05-13T15:58:17.685Z,96196.91
2023-05-13T16:00:44.081Z,96197.16
2023-05-13T16:03:10.469Z,96193.75
2023-05-13T16:05:36.822Z,96197.44
2023-05-13T16:08:03.168Z,96208.03
2023-05-13T16:10:29.506Z,96209.59
2023-05-13T16:12:55.900Z,96208.56
2023-05-13T16:15:22.264Z,96207.53
2023-05-13T16:17:48.609Z,96209.13
2023-05-13T16:20:15.022Z,96206.50
2023-05-13T16:22:41.418Z,96217.88
2023-05-13T16:25:07.782Z,96211.25
2023-05-13T16:27:34.164Z,96196.97
2023-05-13T16:30:00.613Z,96201.75
2023-05-13T16:32:27.051Z,96200.41
2023-05-13T16:34:53.561Z,96206.75
2023-05-13T16:37:19.910Z,96195.41
2023-05-13T16:39:46.263Z,96198.31
2023-05-13T16:42:12.642Z,96193.81
2023-05-13T16:44:39.011Z,96200.16
2023-05-13T16:47:05.389Z,96190.13
2023-05-13T16:49:31.754Z,96198.03
2023-05-13T16:51:58.090Z,96189.06
2023-05-13T16:54:24.463Z,96198.03
2023-05-13T16:56:50.826Z,96198.03
2023-05-13T16:59:17.204Z,96198.56
2023-05-13T17:01:43.975Z,96196.97
2023-05-13T17:04:10.417Z,96191.69
2023-05-13T17:06:36.759Z,96188.00
2023-05-13T17:09:03.111Z,96193.81
2023-05-13T17:11:29.471Z,96197.00
2023-05-13T17:13:55.857Z,96190.91
2023-05-13T17:16:22.248Z,96192.75
2023-05-13T17:18:48.670Z,96198.31
2023-05-13T17:21:15.045Z,96194.09
2023-05-13T17:23:41.396Z,96196.72
2023-05-13T17:26:07.816Z,96203.06
2023-05-13T17:28:34.217Z,96208.59
2023-05-13T17:31:00.698Z,96215.47
2023-05-13T17:33:27.219Z,96210.19
2023-05-13T17:35:53.571Z,96212.56
2023-05-13T17:38:19.944Z,96213.59
2023-05-13T17:40:46.300Z,96211.75
2023-05-13T17:43:12.643Z,96213.78
2023-05-13T17:45:39.108Z,96219.56
2023-05-13T17:48:05.616Z,96207.94
2023-05-13T17:50:32.078Z,96206.41
2023-05-13T17:52:58.505Z,96215.38
2023-05-13T17:55:24.854Z,96210.06
2023-05-13T17:57:51.190Z,96212.13
2023-05-13T18:00:17.572Z,96206.78
2023-05-13T18:02:43.979Z,96207.31
2023-05-13T18:05:10.411Z,96207.34
2023-05-13T18:07:36.800Z,96205.28
2023-05-13T18:10:03.207Z,96208.69
2023-05-13T18:12:29.624Z,96212.63
2023-05-13T18:14:55.998Z,96212.09
2023-05-13T18:17:22.375Z,96212.09
2023-05-13T18:19:48.771Z,96217.66
2023-05-13T18:22:15.159Z,96213.19
2023-05-13T18:24:41.526Z,96212.66
2023-05-13T18:27:07.915Z,96212.66
2023-05-13T18:29:34.248Z,96210.59
2023-05-13T18:32:00.671Z,96213.22
2023-05-13T18:34:27.053Z,96213.19
2023-05-13T18:36:53.446Z,96218.44
2023-05-13T18:39:19.864Z,96222.63
2023-05-13T18:41:46.251Z,96223.41
2023-05-13T18:44:12.646Z,96225.78
2023-05-13T18:46:39.034Z,96227.88
2023-05-13T18:49:05.445Z,96217.34
2023-05-13T18:51:31.826Z,96229.16
2023-05-13T18:53:58.240Z,96233.38
2023-05-13T18:56:24.654Z,96229.94
2023-05-13T18:58:51.006Z,96238.91
2023-05-13T19:01:17.485Z,96228.91
2023-05-13T19:03:44.138Z,96231.03
2023-05-13T19:06:10.584Z,96233.13
2023-05-13T19:08:36.969Z,96239.50
2023-05-13T19:11:03.317Z,96243.19
2023-05-13T19:13:39.777Z,96244.28
2023-05-13T19:16:12.452Z,96241.66
2023-05-13T19:18:38.854Z,96246.59
2023-05-13T19:21:05.267Z,96246.34
2023-05-13T19:23:31.653Z,96253.25
2023-05-13T19:25:58.053Z,96257.97
2023-05-13T19:28:24.930Z,96268.56
2023-05-13T19:30:51.316Z,96270.94
2023-05-13T19:33:17.742Z,96269.91
2023-05-13T19:35:44.098Z,96275.44
2023-05-13T19:38:10.456Z,96270.09
2023-05-13T19:40:36.847Z,96269.56
2023-05-13T19:43:03.238Z,96276.97
2023-05-13T19:45:29.632Z,96276.44
2023-05-13T19:47:56.231Z,96275.63
2023-05-13T19:50:22.900Z,96279.63
2023-05-13T19:52:49.512Z,96278.56
2023-05-13T19:55:15.872Z,96280.66
2023-05-13T19:57:42.247Z,96271.13
2023-05-13T20:00:08.605Z,96281.09
2023-05-13T20:02:35.111Z,96281.09
2023-05-13T20:05:01.612Z,96281.88
2023-05-13T20:07:28.007Z,96282.09
2023-05-13T20:09:54.437Z,96278.16
2023-05-13T20:12:20.814Z,96276.28
2023-05-13T20:14:47.188Z,96281.47
2023-05-13T20:17:13.606Z,96282.47
2023-05-13T20:19:40.026Z,96273.75
2023-05-13T20:22:06.398Z,96278.72
2023-05-13T20:24:32.763Z,96280.88
2023-05-13T20:26:59.150Z,96285.59
2023-05-13T20:29:25.515Z,96289.75
2023-05-13T20:31:51.926Z,96291.31
2023-05-13T20:34:18.298Z,96285.13
2023-05-13T20:36:44.665Z,96283.59
2023-05-13T20:39:11.068Z,96279.91
2023-05-13T20:41:37.469Z,96284.66
2023-05-13T20:44:03.877Z,96286.53
2023-05-13T20:46:30.404Z,96279.44
2023-05-13T20:48:56.995Z,96289.22
2023-05-13T20:51:23.367Z,96279.47
2023-05-13T20:53:49.788Z,96280.28
2023-05-13T20:56:16.181Z,96274.97
2023-05-13T20:58:42.553Z,96280.75
2023-05-13T21:01:08.986Z,96282.63
2023-05-13T21:03:35.633Z,96271.28
2023-05-13T21:06:02.056Z,96284.16
2023-05-13T21:08:28.470Z,96280.97
2023-05-13T21:10:54.913Z,96277.31
2023-05-13T21:13:21.275Z,96286.53
2023-05-13T21:15:47.642Z,96287.03
2023-05-13T21:18:14.062Z,96283.59
2023-05-13T21:20:40.482Z,96279.84
2023-05-13T21:23:06.833Z,96290.38
2023-05-13T21:25:33.154Z,96287.28
2023-05-13T21:27:59.494Z,96283.63
2023-05-13T21:30:25.936Z,96291.53
2023-05-13T21:32:52.465Z,96293.16
2023-05-13T21:35:18.835Z,96283.94
2023-05-13T21:37:47.205Z,96288.63
2023-05-13T21:40:13.959Z,96280.91
2023-05-13T21:42:40.311Z,96286.56
2023-05-13T21:45:06.731Z,96286.50
2023-05-13T21:47:33.170Z,96290.19
2023-05-13T21:49:59.536Z,96284.94
2023-05-13T21:52:25.896Z,96274.91
2023-05-13T21:54:52.277Z,96281.75
2023-05-13T21:57:18.627Z,96280.94
2023-05-13T21:59:45.002Z,96280.66
2023-05-13T22:02:11.396Z,96279.56
2023-05-13T22:04:37.830Z,96279.34
2023-05-13T22:07:04.209Z,96277.03
2023-05-13T22:09:30.558Z,96277.03
2023-05-13T22:11:56.905Z,96270.59
2023-05-13T22:14:23.296Z,96273.31
2023-05-13T22:17:00.886Z,96278.81
2023-05-13T22:19:34.657Z,96273.59
2023-05-13T22:22:01.075Z,96268.63
2023-05-13T22:24:27.512Z,96277.59
2023-05-13T22:26:53.882Z,96272.13
2023-05-13T22:29:20.286Z,96278.94
2023-05-13T22:31:46.695Z,96273.94
2023-05-13T22:34:13.086Z,96272.13
2023-05-13T22:36:41.148Z,96270.53
2023-05-13T22:39:08.865Z,96274.75
2023-05-13T22:41:35.256Z,96266.81
2023-05-13T22:44:01.610Z,96264.13
2023-05-13T22:46:28.039Z,96268.63
2023-05-13T22:48:54.438Z,96262.25
2023-05-13T22:51:20.799Z,96269.66
2023-05-13T22:53:47.190Z,96258.34
2023-05-13T22:56:13.554Z,96264.09
2023-05-13T22:58:39.898Z,96273.50
2023-05-13T23:01:06.244Z,96272.38
2023-05-13T23:03:32.608Z,96271.22
2023-05-13T23:05:59.017Z,96268.75
2023-05-13T23:08:25.405Z,96269.47
2023-05-13T23:10:51.754Z,96259.44
2023-05-13T23:13:18.124Z,96260.13
2023-05-13T23:15:44.547Z,96260.94
2023-05-13T23:18:11.034Z,96252.59
2023-05-13T23:20:37.408Z,96258.00
2023-05-13T23:23:03.757Z,96262.34
2023-05-13T23:25:30.136Z,96260.88
2023-05-13T23:27:56.529Z,96260.38
2023-05-13T23:30:23.226Z,96258.31
2023-05-13T23:32:49.728Z,96254.09
2023-05-13T23:35:16.128Z,96247.25
2023-05-13T23:37:42.469Z,96244.66
2023-05-13T23:40:08.838Z,96249.41
2023-05-13T23:42:35.181Z,96249.41
2023-05-13T23:45:01.548Z,96240.16
2023-05-13T23:47:27.962Z,96237.78
2023-05-13T23:49:54.405Z,96243.06
2023-05-13T23:52:21.065Z,96234.63
2023-05-13T23:54:47.521Z,96231.97
2023-05-13T23:57:13.913Z,96233.00
2023-05-13T23:59:40.307Z,96229.78
